Terminal Aerodrome Forecast
Issued by NWS

Home | Current Version | Previous Version | Text Only | Print | Product List | Glossary On
Versions: 1 2 3 4 5 6 7 8 9 10 11 12
000
FTUS42 TJSJ 201140 AAA
TAFJMZ
TAF AMD
TJMZ 201140Z 2012/2112 00000KT 6SM HZ FEW030
     FM201630 29010KT 6SM HZ SCT040
     FM202300 00000KT P6SM SKC
      AMD NOT SKED=

USA.gov is the U.S. government's official web portal to all federal, state and local government web resources and services.